createdAt,value
2019-05-23T02:22:46.462Z,13.44
2019-05-23T02:23:46.457Z,13.41
2019-05-23T02:24:46.433Z,13.38
2019-05-23T02:25:46.424Z,13.48
2019-05-23T02:26:46.414Z,13.38
2019-05-23T02:27:46.411Z,13.38
2019-05-23T02:28:46.390Z,13.44
2019-05-23T02:29:46.419Z,13.35
2019-05-23T02:30:46.371Z,13.26
2019-05-23T02:31:46.365Z,13.38
2019-05-23T02:32:46.348Z,13.29
2019-05-23T02:33:46.340Z,13.37
2019-05-23T02:34:46.326Z,13.27
2019-05-23T02:35:46.312Z,13.26
2019-05-23T02:36:46.322Z,13.14
2019-05-23T02:37:46.291Z,13.24
2019-05-23T02:38:46.274Z,13.19
2019-05-23T02:39:46.267Z,13.23
2019-05-23T02:40:46.257Z,13.26
2019-05-23T02:41:46.254Z,13.30
2019-05-23T02:42:46.237Z,13.26
2019-05-23T02:43:46.224Z,13.29
2019-05-23T02:44:46.213Z,13.23
2019-05-23T02:45:46.198Z,13.27
2019-05-23T02:46:46.183Z,13.21
2019-05-23T02:47:46.224Z,13.27
2019-05-23T02:48:46.164Z,13.23
2019-05-23T02:49:46.152Z,13.27
2019-05-23T02:50:46.135Z,13.27
2019-05-23T02:51:46.134Z,13.27
2019-05-23T02:52:46.121Z,13.26
2019-05-23T02:53:46.110Z,13.24
2019-05-23T02:54:46.110Z,13.20
2019-05-23T02:55:46.104Z,13.16
2019-05-23T02:56:46.071Z,13.23
2019-05-23T02:57:46.060Z,13.19
2019-05-23T02:58:46.046Z,13.13
2019-05-23T02:59:46.034Z,13.11
2019-05-23T03:00:54.446Z,13.21
2019-05-23T03:02:10.490Z,13.17
2019-05-23T03:03:10.483Z,13.16
2019-05-23T03:04:10.473Z,13.16
2019-05-23T03:05:10.459Z,13.20
2019-05-23T03:06:10.448Z,13.04
2019-05-23T03:07:10.437Z,13.05
2019-05-23T03:08:10.426Z,13.02
2019-05-23T03:09:10.422Z,13.02
2019-05-23T03:10:10.431Z,13.05
2019-05-23T03:11:10.422Z,13.04
2019-05-23T03:12:10.432Z,13.13
2019-05-23T03:13:10.377Z,13.08
2019-05-23T03:14:10.378Z,13.06
2019-05-23T03:15:10.376Z,13.16
2019-05-23T03:16:10.377Z,13.17
2019-05-23T03:17:10.328Z,13.04
2019-05-23T03:18:10.316Z,13.01
2019-05-23T03:19:10.305Z,13.09
2019-05-23T03:20:10.290Z,13.02
2019-05-23T03:21:10.278Z,12.91
2019-05-23T03:22:10.282Z,13.02
2019-05-23T03:23:10.257Z,12.91
2019-05-23T03:24:10.247Z,12.98
2019-05-23T03:25:10.234Z,12.98
2019-05-23T03:26:10.227Z,12.98
2019-05-23T03:27:10.213Z,12.98
2019-05-23T03:28:10.204Z,12.98
2019-05-23T03:29:10.192Z,13.06
2019-05-23T03:30:10.183Z,12.99
2019-05-23T03:31:28.341Z,12.98
2019-05-23T03:32:11.176Z,12.99
2019-05-23T03:33:10.153Z,13.08
2019-05-23T03:34:10.138Z,12.98
2019-05-23T03:35:10.143Z,13.05
2019-05-23T03:36:10.133Z,13.04
2019-05-23T03:37:10.100Z,13.02
2019-05-23T03:38:10.096Z,12.95
2019-05-23T03:39:10.080Z,12.87
2019-05-23T03:40:10.071Z,12.93
2019-05-23T03:41:10.075Z,12.88
2019-05-23T03:42:10.057Z,12.90
2019-05-23T03:43:10.042Z,12.91
2019-05-23T03:44:10.028Z,12.90
2019-05-23T03:45:10.011Z,12.80
2019-05-23T03:46:09.998Z,12.87
2019-05-23T03:47:09.987Z,12.87
2019-05-23T03:48:09.981Z,12.90
2019-05-23T03:49:09.973Z,12.91
2019-05-23T03:50:09.952Z,12.98
2019-05-23T03:51:09.963Z,12.88
2019-05-23T03:52:09.942Z,12.91
2019-05-23T03:53:09.926Z,12.83
2019-05-23T03:54:09.909Z,12.80
2019-05-23T03:55:09.897Z,12.68
2019-05-23T03:56:09.885Z,12.61
2019-05-23T03:57:09.880Z,12.69
2019-05-23T03:58:09.868Z,12.71
2019-05-23T03:59:09.883Z,12.84
2019-05-23T04:00:09.842Z,12.80
2019-05-23T04:01:09.832Z,12.80
2019-05-23T04:02:09.821Z,12.80
2019-05-23T04:03:09.808Z,12.80
2019-05-23T04:04:09.806Z,12.79
2019-05-23T04:05:09.789Z,12.80
2019-05-23T04:06:09.771Z,12.84
2019-05-23T04:07:09.774Z,12.83
2019-05-23T04:08:09.761Z,12.91
2019-05-23T04:09:09.747Z,12.88
2019-05-23T04:10:09.725Z,12.88
2019-05-23T04:11:09.719Z,12.90
2019-05-23T04:12:09.715Z,12.86
2019-05-23T04:13:09.689Z,12.95
2019-05-23T04:14:09.679Z,12.87
2019-05-23T04:15:09.668Z,12.84
2019-05-23T04:16:09.660Z,12.87
2019-05-23T04:17:09.646Z,12.90
2019-05-23T04:18:09.643Z,12.87
2019-05-23T04:19:09.624Z,12.80
2019-05-23T04:20:09.609Z,12.86
2019-05-23T04:21:09.598Z,12.79
2019-05-23T04:22:09.587Z,12.73
2019-05-23T04:23:09.577Z,12.86
2019-05-23T04:24:09.572Z,12.71
2019-05-23T04:25:09.556Z,12.81
2019-05-23T04:26:09.540Z,12.72
2019-05-23T04:27:09.533Z,12.72
2019-05-23T04:28:09.518Z,12.73
2019-05-23T04:29:09.511Z,12.63
2019-05-23T04:30:09.497Z,12.66
2019-05-23T04:31:12.971Z,12.65
2019-05-23T04:32:09.472Z,12.63
2019-05-23T04:33:09.469Z,12.63
2019-05-23T04:34:09.450Z,12.58
2019-05-23T04:35:09.442Z,12.63
2019-05-23T04:36:09.425Z,12.65
2019-05-23T04:37:09.412Z,12.60
2019-05-23T04:38:09.404Z,12.63
2019-05-23T04:39:09.389Z,12.71
2019-05-23T04:40:09.377Z,12.80
2019-05-23T04:41:09.370Z,12.83
2019-05-23T04:42:09.358Z,12.80
2019-05-23T04:43:09.345Z,12.91
2019-05-23T04:44:09.338Z,12.91
2019-05-23T04:45:09.321Z,12.93
2019-05-23T04:46:09.313Z,12.95
2019-05-23T04:47:09.302Z,12.90
2019-05-23T04:48:09.289Z,12.91
2019-05-23T04:49:09.281Z,12.98
2019-05-23T04:50:09.269Z,12.96
2019-05-23T04:51:09.254Z,13.45
2019-05-23T04:52:09.245Z,13.87
2019-05-23T04:53:09.234Z,14.33
2019-05-23T04:54:09.220Z,14.61
2019-05-23T04:55:09.246Z,15.06
2019-05-23T04:56:09.200Z,15.26
2019-05-23T04:57:09.192Z,15.54
2019-05-23T04:58:09.176Z,15.83
2019-05-23T04:59:09.165Z,16.09
2019-05-23T05:00:09.151Z,16.14
2019-05-23T05:01:09.149Z,16.41
2019-05-23T05:02:24.834Z,16.71
2019-05-23T05:03:33.605Z,16.99
2019-05-23T05:04:33.594Z,17.27
2019-05-23T05:05:33.576Z,17.41
2019-05-23T05:06:33.583Z,17.43
2019-05-23T05:07:33.556Z,17.72
2019-05-23T05:08:33.550Z,17.82
2019-05-23T05:09:33.533Z,17.95
2019-05-23T05:10:33.517Z,18.19
2019-05-23T05:11:33.513Z,18.29
2019-05-23T05:12:33.495Z,18.52
2019-05-23T05:13:33.486Z,18.64
2019-05-23T05:14:33.571Z,18.81
2019-05-23T05:15:33.467Z,18.91
2019-05-23T05:16:33.450Z,19.14
2019-05-23T05:17:33.441Z,19.21
2019-05-23T05:18:33.427Z,19.44
2019-05-23T05:19:33.424Z,19.58
2019-05-23T05:20:33.408Z,19.62
2019-05-23T05:21:33.392Z,19.73
2019-05-23T05:22:33.383Z,19.93
2019-05-23T05:23:33.377Z,20.07
2019-05-23T05:24:33.361Z,20.18
2019-05-23T05:25:33.348Z,20.37
2019-05-23T05:26:33.338Z,20.45
2019-05-23T05:27:33.336Z,20.42
2019-05-23T05:28:33.329Z,20.57
2019-05-23T05:29:33.309Z,20.55
2019-05-23T05:30:33.343Z,20.69
2019-05-23T05:31:33.284Z,20.89
2019-05-23T05:32:44.250Z,21.00
2019-05-23T05:33:34.293Z,21.09
2019-05-23T05:34:33.257Z,21.28
2019-05-23T05:35:33.273Z,21.44
2019-05-23T05:36:33.231Z,21.51
2019-05-23T05:37:33.220Z,21.62
2019-05-23T05:38:33.207Z,21.75
2019-05-23T05:39:33.196Z,21.85
2019-05-23T05:40:33.188Z,21.99
2019-05-23T05:41:33.187Z,21.99
2019-05-23T05:42:33.163Z,22.21
2019-05-23T05:43:33.193Z,22.39
2019-05-23T05:44:33.141Z,22.50
2019-05-23T05:45:33.394Z,22.54
2019-05-23T05:46:33.118Z,22.73
2019-05-23T05:47:33.107Z,22.80
2019-05-23T05:48:33.092Z,22.89
2019-05-23T05:49:33.083Z,22.92
2019-05-23T05:50:33.072Z,23.13
2019-05-23T05:51:33.063Z,23.32
2019-05-23T05:52:33.048Z,23.43
2019-05-23T05:53:33.037Z,23.58
2019-05-23T05:54:33.029Z,23.66
2019-05-23T05:55:33.037Z,23.78
2019-05-23T05:56:33.005Z,23.97
2019-05-23T05:57:32.998Z,24.10
2019-05-23T05:58:32.984Z,24.25
2019-05-23T05:59:32.976Z,24.22
2019-05-23T06:00:32.971Z,24.13
2019-05-23T06:01:34.563Z,24.23
2019-05-23T06:02:32.956Z,24.38
2019-05-23T06:03:32.930Z,24.48
2019-05-23T06:04:32.922Z,24.63
2019-05-23T06:05:32.910Z,24.92
2019-05-23T06:06:32.895Z,25.14
2019-05-23T06:07:32.888Z,25.32
2019-05-23T06:08:32.879Z,25.30
2019-05-23T06:09:32.869Z,25.49
2019-05-23T06:10:32.858Z,25.61
2019-05-23T06:11:32.842Z,25.58
2019-05-23T06:12:32.832Z,25.58
2019-05-23T06:13:32.857Z,25.70
2019-05-23T06:14:32.807Z,25.66
2019-05-23T06:15:32.795Z,25.88
2019-05-23T06:16:32.790Z,26.00
2019-05-23T06:17:32.827Z,26.19
2019-05-23T06:18:32.765Z,26.15
2019-05-23T06:19:32.755Z,26.29
2019-05-23T06:20:32.744Z,26.18
2019-05-23T06:21:32.736Z,26.22
2019-05-23T06:22:32.718Z,26.29
2019-05-23T06:23:32.707Z,26.45
2019-05-23T06:24:45.110Z,26.52
2019-05-23T06:25:57.169Z,26.77
2019-05-23T06:26:57.156Z,26.82
2019-05-23T06:27:57.146Z,26.98
2019-05-23T06:28:57.136Z,27.13
2019-05-23T06:29:57.124Z,27.13
2019-05-23T06:30:57.112Z,27.25
2019-05-23T06:31:57.103Z,27.35
2019-05-23T06:32:57.099Z,27.10
2019-05-23T06:33:57.082Z,27.35
2019-05-23T06:34:57.068Z,27.45
2019-05-23T06:35:57.057Z,27.65
2019-05-23T06:36:57.041Z,27.89
2019-05-23T06:37:57.344Z,28.00
2019-05-23T06:38:57.028Z,28.14
2019-05-23T06:39:57.024Z,28.14
2019-05-23T06:40:56.999Z,28.31
2019-05-23T06:41:56.987Z,28.43
2019-05-23T06:42:56.985Z,28.64
2019-05-23T06:43:56.969Z,28.57
2019-05-23T06:44:56.979Z,28.59
2019-05-23T06:45:56.946Z,28.64
2019-05-23T06:46:56.934Z,28.79
2019-05-23T06:47:56.926Z,28.77
2019-05-23T06:48:56.927Z,28.81
2019-05-23T06:49:56.908Z,28.84
2019-05-23T06:50:56.895Z,28.72
2019-05-23T06:51:56.889Z,28.69
2019-05-23T06:52:56.874Z,28.68
2019-05-23T06:53:56.858Z,28.89
2019-05-23T06:54:59.681Z,29.08
2019-05-23T06:55:56.910Z,29.23
2019-05-23T06:56:56.838Z,29.12
2019-05-23T06:57:56.811Z,29.18
2019-05-23T06:58:56.805Z,29.28
2019-05-23T06:59:56.795Z,29.45
2019-05-23T07:00:56.779Z,29.60
2019-05-23T07:01:56.780Z,29.46
2019-05-23T07:02:56.761Z,29.32
2019-05-23T07:03:56.995Z,29.39
2019-05-23T07:04:56.733Z,29.76
2019-05-23T07:05:56.722Z,29.81
2019-05-23T07:06:56.715Z,29.99
2019-05-23T07:07:56.719Z,30.11
2019-05-23T07:08:56.690Z,30.26
2019-05-23T07:09:56.765Z,30.22
2019-05-23T07:10:56.665Z,30.21
2019-05-23T07:11:56.661Z,30.17
2019-05-23T07:12:56.648Z,30.07
2019-05-23T07:13:56.629Z,30.21
2019-05-23T07:14:56.624Z,30.21
2019-05-23T07:15:56.611Z,30.42
2019-05-23T07:16:56.605Z,30.64
2019-05-23T07:17:56.593Z,30.72
2019-05-23T07:18:56.578Z,31.03
2019-05-23T07:19:56.565Z,31.33
2019-05-23T07:20:56.558Z,31.41
2019-05-23T07:21:56.541Z,31.44
2019-05-23T07:22:56.537Z,31.56
2019-05-23T07:23:56.521Z,31.60
2019-05-23T07:24:58.532Z,31.63
2019-05-23T07:25:56.504Z,31.60
2019-05-23T07:26:56.490Z,31.45
2019-05-23T07:27:56.492Z,31.29
2019-05-23T07:28:56.466Z,31.34
2019-05-23T07:29:56.561Z,31.34
2019-05-23T07:30:56.443Z,31.34
2019-05-23T07:31:56.436Z,31.42
2019-05-23T07:32:56.426Z,31.30
2019-05-23T07:34:01.841Z,31.39
2019-05-23T07:35:20.886Z,31.15
2019-05-23T07:36:20.976Z,31.04
2019-05-23T07:37:20.853Z,31.15
2019-05-23T07:38:20.847Z,31.29
2019-05-23T07:39:20.840Z,31.59
2019-05-23T07:40:20.823Z,31.57
2019-05-23T07:41:20.818Z,31.67
2019-05-23T07:42:20.798Z,31.85
2019-05-23T07:43:20.793Z,31.94
2019-05-23T07:44:20.780Z,32.03
2019-05-23T07:45:20.772Z,32.08
2019-05-23T07:46:20.771Z,32.26
2019-05-23T07:47:20.750Z,32.40
2019-05-23T07:48:20.745Z,32.55
2019-05-23T07:49:20.823Z,32.60
2019-05-23T07:50:20.719Z,32.69
2019-05-23T07:51:20.710Z,32.63
2019-05-23T07:52:20.689Z,32.49
2019-05-23T07:53:20.685Z,32.31
2019-05-23T07:54:20.665Z,32.23
2019-05-23T07:55:20.661Z,32.25
2019-05-23T07:56:20.661Z,32.41
2019-05-23T07:57:20.656Z,32.38
2019-05-23T07:58:20.628Z,32.18
2019-05-23T07:59:20.614Z,32.04
2019-05-23T08:00:20.642Z,31.76
2019-05-23T08:01:20.610Z,31.30
2019-05-23T08:02:25.321Z,31.38
2019-05-23T08:03:20.597Z,31.66
2019-05-23T08:04:22.513Z,31.94
2019-05-23T08:05:20.549Z,31.68
2019-05-23T08:06:20.560Z,31.71
2019-05-23T08:07:20.531Z,31.81
2019-05-23T08:08:20.517Z,31.88
2019-05-23T08:09:20.509Z,31.89
2019-05-23T08:10:33.248Z,32.26
2019-05-23T08:11:21.510Z,32.65
2019-05-23T08:12:20.485Z,32.92
2019-05-23T08:13:20.464Z,32.80
2019-05-23T08:14:20.463Z,32.70
2019-05-23T08:15:20.458Z,32.72
2019-05-23T08:16:20.441Z,33.01
2019-05-23T08:17:20.519Z,33.20
2019-05-23T08:18:20.432Z,33.41
2019-05-23T08:19:20.408Z,33.70
2019-05-23T08:20:20.390Z,33.81
2019-05-23T08:21:20.386Z,33.84
2019-05-23T08:22:20.364Z,33.92
2019-05-23T08:23:20.396Z,34.15
2019-05-23T08:24:20.351Z,34.19
2019-05-23T08:25:20.329Z,34.13
2019-05-23T08:26:20.325Z,34.06
2019-05-23T08:27:20.310Z,34.03
2019-05-23T08:28:20.306Z,33.94
2019-05-23T08:29:26.483Z,34.10
2019-05-23T08:30:21.293Z,33.19
2019-05-23T08:31:20.273Z,32.47
2019-05-23T08:32:20.255Z,32.83
2019-05-23T08:33:20.247Z,32.94
2019-05-23T08:34:39.574Z,33.06
2019-05-23T08:35:44.698Z,31.98
2019-05-23T08:36:44.686Z,30.85
2019-05-23T08:37:44.678Z,30.42
2019-05-23T08:38:44.669Z,31.17
2019-05-23T08:39:44.656Z,32.00
2019-05-23T08:40:44.650Z,32.79
2019-05-23T08:41:44.633Z,33.25
2019-05-23T08:42:44.624Z,33.36
2019-05-23T08:43:44.617Z,33.72
2019-05-23T08:44:44.603Z,33.85
2019-05-23T08:45:44.592Z,33.83
2019-05-23T08:46:44.579Z,33.22
2019-05-23T08:47:44.572Z,33.19
2019-05-23T08:48:44.559Z,33.22
2019-05-23T08:49:44.550Z,33.12
2019-05-23T08:50:44.539Z,32.45
2019-05-23T08:51:44.538Z,32.60
2019-05-23T08:52:44.515Z,32.90
2019-05-23T08:53:44.504Z,33.31
2019-05-23T08:54:44.500Z,33.47
2019-05-23T08:55:44.488Z,33.85
2019-05-23T08:56:44.472Z,34.16
2019-05-23T08:57:44.470Z,34.42
2019-05-23T08:58:44.456Z,33.32
2019-05-23T08:59:44.443Z,33.35
2019-05-23T09:00:44.431Z,33.61
2019-05-23T09:01:44.426Z,33.80
2019-05-23T09:02:44.409Z,34.01
2019-05-23T09:03:44.403Z,34.38
2019-05-23T09:05:02.583Z,34.42
2019-05-23T09:06:08.853Z,34.37
2019-05-23T09:07:08.840Z,34.00
2019-05-23T09:08:08.836Z,34.01
2019-05-23T09:09:27.683Z,34.16
2019-05-23T09:10:33.285Z,34.06
2019-05-23T09:11:33.277Z,33.92
2019-05-23T09:12:33.272Z,34.18
2019-05-23T09:13:33.255Z,34.37
2019-05-23T09:14:33.248Z,34.40
2019-05-23T09:15:33.238Z,34.50
2019-05-23T09:16:33.415Z,34.64
2019-05-23T09:17:51.039Z,34.71
2019-05-23T09:18:34.221Z,34.62
2019-05-23T09:19:33.192Z,34.69
2019-05-23T09:20:33.192Z,34.57
2019-05-23T09:21:33.186Z,34.75
2019-05-23T09:22:33.168Z,34.84
2019-05-23T09:23:33.156Z,35.03
2019-05-23T09:24:33.144Z,35.15
2019-05-23T09:25:33.130Z,35.28
2019-05-23T09:26:33.120Z,35.35
2019-05-23T09:27:34.699Z,35.70
2019-05-23T09:28:33.104Z,35.54
2019-05-23T09:29:33.093Z,35.39
2019-05-23T09:30:33.089Z,35.57
2019-05-23T09:31:33.069Z,35.63
2019-05-23T09:32:33.059Z,35.87
2019-05-23T09:33:33.047Z,35.88
2019-05-23T09:34:33.035Z,35.91
2019-05-23T09:35:33.027Z,35.76
2019-05-23T09:36:33.015Z,35.56
2019-05-23T09:37:33.026Z,35.50
2019-05-23T09:38:32.997Z,35.42
2019-05-23T09:39:32.990Z,35.15
2019-05-23T09:40:32.984Z,35.28
2019-05-23T09:41:32.974Z,35.34
2019-05-23T09:42:32.958Z,35.48
2019-05-23T09:43:32.946Z,35.68
2019-05-23T09:44:32.937Z,35.68
2019-05-23T09:45:32.924Z,35.42
2019-05-23T09:46:32.915Z,35.41
2019-05-23T09:47:32.911Z,35.53
2019-05-23T09:48:32.899Z,35.84
2019-05-23T09:49:32.884Z,36.02
2019-05-23T09:50:32.880Z,35.98
2019-05-23T09:51:32.868Z,35.76
2019-05-23T09:52:32.858Z,35.75
2019-05-23T09:53:32.853Z,35.85
2019-05-23T09:54:32.837Z,35.90
2019-05-23T09:55:32.821Z,35.97
2019-05-23T09:56:32.812Z,36.14
2019-05-23T09:57:32.802Z,36.28
2019-05-23T09:58:32.798Z,36.47
2019-05-23T09:59:32.782Z,36.51
2019-05-23T10:00:32.775Z,36.35
2019-05-23T10:01:32.778Z,36.13
2019-05-23T10:02:32.758Z,35.95
2019-05-23T10:03:32.751Z,35.79
2019-05-23T10:04:32.745Z,35.53
2019-05-23T10:05:42.914Z,35.37
2019-05-23T10:06:57.189Z,35.03
2019-05-23T10:07:57.181Z,34.07
2019-05-23T10:08:57.168Z,33.70
2019-05-23T10:09:57.154Z,34.10
2019-05-23T10:10:57.151Z,34.55
2019-05-23T10:11:57.136Z,34.74
2019-05-23T10:12:57.126Z,35.08
2019-05-23T10:13:57.113Z,35.42
2019-05-23T10:14:57.104Z,35.54
2019-05-23T10:15:57.093Z,35.73
2019-05-23T10:16:57.084Z,35.90
2019-05-23T10:18:00.704Z,35.72
2019-05-23T10:18:57.063Z,35.76
2019-05-23T10:19:57.063Z,35.77
2019-05-23T10:20:57.057Z,36.07
2019-05-23T10:21:57.039Z,36.44
2019-05-23T10:22:57.023Z,36.83
2019-05-23T10:23:57.020Z,36.91
2019-05-23T10:24:57.005Z,36.93
2019-05-23T10:25:56.995Z,36.98
2019-05-23T10:26:56.988Z,37.15
2019-05-23T10:27:56.974Z,36.22
2019-05-23T10:28:56.964Z,36.10
2019-05-23T10:29:56.954Z,36.12
2019-05-23T10:30:56.943Z,36.12
2019-05-23T10:31:56.938Z,36.14
2019-05-23T10:32:56.926Z,35.92
2019-05-23T10:33:56.918Z,36.03
2019-05-23T10:34:56.922Z,35.47
2019-05-23T10:36:00.874Z,35.47
2019-05-23T10:36:56.927Z,35.42
2019-05-23T10:37:56.891Z,35.50
2019-05-23T10:38:56.871Z,35.53
2019-05-23T10:39:56.873Z,35.75
2019-05-23T10:40:56.886Z,35.75
2019-05-23T10:41:56.883Z,35.47
2019-05-23T10:42:56.825Z,35.25
2019-05-23T10:43:56.819Z,35.19
2019-05-23T10:44:56.807Z,35.16
2019-05-23T10:45:56.795Z,35.00
2019-05-23T10:46:56.787Z,34.47
2019-05-23T10:47:56.772Z,34.32
2019-05-23T10:48:56.771Z,34.45
2019-05-23T10:49:56.754Z,34.48
2019-05-23T10:50:56.744Z,34.47
2019-05-23T10:51:56.733Z,34.45
2019-05-23T10:52:56.724Z,34.26
2019-05-23T10:53:56.713Z,34.41
2019-05-23T10:54:56.705Z,34.45
2019-05-23T10:55:56.727Z,34.66
2019-05-23T10:56:56.688Z,34.90
2019-05-23T10:57:56.676Z,35.00
2019-05-23T10:58:56.670Z,35.01
2019-05-23T10:59:56.657Z,34.85
2019-05-23T11:00:56.647Z,34.69
2019-05-23T11:01:56.631Z,34.37
2019-05-23T11:02:56.638Z,34.34
2019-05-23T11:03:56.612Z,34.40
2019-05-23T11:04:56.629Z,34.41
2019-05-23T11:05:56.590Z,34.50
2019-05-23T11:06:56.581Z,34.52
2019-05-23T11:07:56.582Z,34.42
2019-05-23T11:08:56.577Z,34.45
2019-05-23T11:09:56.568Z,34.48
2019-05-23T11:10:56.546Z,34.28
2019-05-23T11:11:56.533Z,34.23
2019-05-23T11:12:56.522Z,34.34
2019-05-23T11:13:56.651Z,34.56
2019-05-23T11:14:56.537Z,34.59
2019-05-23T11:15:56.493Z,34.63
2019-05-23T11:16:56.481Z,34.67
2019-05-23T11:17:56.471Z,34.64
2019-05-23T11:18:56.460Z,34.63
2019-05-23T11:19:56.451Z,34.60
2019-05-23T11:20:56.446Z,34.69
2019-05-23T11:21:56.431Z,34.44
2019-05-23T11:22:56.426Z,34.22
2019-05-23T11:23:56.418Z,33.97
2019-05-23T11:24:56.409Z,33.85
2019-05-23T11:26:00.654Z,33.85
2019-05-23T11:26:56.381Z,33.81
2019-05-23T11:27:56.371Z,33.61
2019-05-23T11:28:56.362Z,33.47
2019-05-23T11:29:56.361Z,33.57
2019-05-23T11:30:56.340Z,33.78
2019-05-23T11:31:56.331Z,33.35
2019-05-23T11:32:56.320Z,31.90
2019-05-23T11:33:56.311Z,31.00
2019-05-23T11:34:56.302Z,30.17
2019-05-23T11:35:56.355Z,30.15
2019-05-23T11:36:56.286Z,30.13
2019-05-23T11:37:56.270Z,30.39
2019-05-23T11:38:56.260Z,30.59
2019-05-23T11:39:56.252Z,29.96
2019-05-23T11:40:56.239Z,30.30
2019-05-23T11:41:56.241Z,31.01
2019-05-23T11:42:56.221Z,31.42
2019-05-23T11:43:56.210Z,31.83
2019-05-23T11:44:56.203Z,31.98
2019-05-23T11:45:56.188Z,32.25
2019-05-23T11:46:56.189Z,32.52
2019-05-23T11:47:56.170Z,32.64
2019-05-23T11:48:56.163Z,32.57
2019-05-23T11:49:56.174Z,32.61
2019-05-23T11:50:56.141Z,32.82
2019-05-23T11:51:56.143Z,33.14
2019-05-23T11:52:56.323Z,32.98
2019-05-23T11:54:07.684Z,32.92
2019-05-23T11:55:20.607Z,32.98
2019-05-23T11:56:20.597Z,32.83
2019-05-23T11:57:20.594Z,32.45
2019-05-23T11:58:20.580Z,32.08
2019-05-23T11:59:20.560Z,31.81
2019-05-23T12:00:20.592Z,31.67
2019-05-23T12:01:21.486Z,31.88
2019-05-23T12:02:20.535Z,32.05
2019-05-23T12:03:20.551Z,32.08
2019-05-23T12:04:20.535Z,32.13
2019-05-23T12:05:20.497Z,32.26
2019-05-23T12:06:20.489Z,32.34
2019-05-23T12:07:20.473Z,32.42
2019-05-23T12:08:20.464Z,32.23
2019-05-23T12:09:20.456Z,32.05
2019-05-23T12:10:20.450Z,31.98
2019-05-23T12:11:20.438Z,31.85
2019-05-23T12:12:20.422Z,31.48
2019-05-23T12:13:20.411Z,31.39
2019-05-23T12:14:20.402Z,31.30
2019-05-23T12:15:20.389Z,30.94
2019-05-23T12:16:20.378Z,30.69
2019-05-23T12:17:20.379Z,30.48
2019-05-23T12:18:20.364Z,30.26
2019-05-23T12:19:20.471Z,30.20
2019-05-23T12:20:20.338Z,29.93
2019-05-23T12:21:20.379Z,30.03
2019-05-23T12:22:20.316Z,29.86
2019-05-23T12:23:20.316Z,29.83
2019-05-23T12:24:20.293Z,29.84
2019-05-23T12:25:22.945Z,29.87
2019-05-23T12:26:20.286Z,29.89
2019-05-23T12:27:20.265Z,29.86
2019-05-23T12:28:20.262Z,29.84
2019-05-23T12:29:20.245Z,29.86
2019-05-23T12:30:20.231Z,29.77
2019-05-23T12:31:20.225Z,29.89
2019-05-23T12:32:20.212Z,29.98
2019-05-23T12:33:20.205Z,30.05
2019-05-23T12:34:20.196Z,30.22
2019-05-23T12:35:20.183Z,30.33
2019-05-23T12:36:20.169Z,30.22
2019-05-23T12:37:20.830Z,30.20
2019-05-23T12:38:20.153Z,30.21
2019-05-23T12:39:20.138Z,29.92
2019-05-23T12:40:20.129Z,29.92
2019-05-23T12:41:20.117Z,30.02
2019-05-23T12:42:20.103Z,29.93
2019-05-23T12:43:20.095Z,29.83
2019-05-23T12:44:20.086Z,29.57
2019-05-23T12:45:20.071Z,28.93
2019-05-23T12:46:20.064Z,28.74
2019-05-23T12:47:20.060Z,28.31
2019-05-23T12:48:20.039Z,28.12
2019-05-23T12:49:20.031Z,28.42
2019-05-23T12:50:20.019Z,28.61
2019-05-23T12:51:20.025Z,28.57
2019-05-23T12:52:19.997Z,28.43
2019-05-23T12:53:19.986Z,28.42
2019-05-23T12:54:19.977Z,28.42
2019-05-23T12:55:19.967Z,28.53
2019-05-23T12:56:19.968Z,28.53
2019-05-23T12:57:19.957Z,28.68
2019-05-23T12:58:19.944Z,28.84
2019-05-23T12:59:19.922Z,28.86
2019-05-23T13:00:19.918Z,28.91
2019-05-23T13:01:19.903Z,28.96
2019-05-23T13:02:19.892Z,29.02
2019-05-23T13:03:19.882Z,28.90
2019-05-23T13:04:19.869Z,29.03
2019-05-23T13:05:19.872Z,28.91
2019-05-23T13:06:19.860Z,28.77
2019-05-23T13:07:35.025Z,28.64
2019-05-23T13:08:44.303Z,28.53
2019-05-23T13:09:44.565Z,28.35
2019-05-23T13:10:44.291Z,27.78
2019-05-23T13:11:44.274Z,26.62
2019-05-23T13:12:44.367Z,25.89
2019-05-23T13:13:44.247Z,25.77
2019-05-23T13:14:44.243Z,25.61
2019-05-23T13:15:44.228Z,25.66
2019-05-23T13:16:44.213Z,25.56
2019-05-23T13:17:44.204Z,25.95
2019-05-23T13:18:44.198Z,26.14
2019-05-23T13:19:44.180Z,26.42
2019-05-23T13:20:44.185Z,26.63
2019-05-23T13:21:44.159Z,26.82
2019-05-23T13:22:44.153Z,27.10
2019-05-23T13:23:44.138Z,27.04
2019-05-23T13:24:52.885Z,27.10
2019-05-23T13:25:45.136Z,26.89
2019-05-23T13:26:44.123Z,26.93
2019-05-23T13:27:44.095Z,27.13
2019-05-23T13:28:44.091Z,27.26
2019-05-23T13:29:44.074Z,27.17
2019-05-23T13:30:44.070Z,27.08
2019-05-23T13:31:44.060Z,26.93
2019-05-23T13:32:44.049Z,26.45
2019-05-23T13:33:44.032Z,26.07
2019-05-23T13:34:44.022Z,26.23
2019-05-23T13:35:44.013Z,26.26
2019-05-23T13:36:43.999Z,26.27
2019-05-23T13:37:53.057Z,26.55
2019-05-23T13:38:44.997Z,26.63
2019-05-23T13:39:43.972Z,26.75
2019-05-23T13:40:43.957Z,26.86
2019-05-23T13:41:43.949Z,26.88
2019-05-23T13:42:43.934Z,27.00
2019-05-23T13:43:43.928Z,27.10
2019-05-23T13:44:43.926Z,27.22
2019-05-23T13:45:43.909Z,27.25
2019-05-23T13:46:43.900Z,27.27
2019-05-23T13:47:43.879Z,27.32
2019-05-23T13:48:43.873Z,27.07
2019-05-23T13:49:43.858Z,27.04
2019-05-23T13:50:43.853Z,27.07
2019-05-23T13:51:43.975Z,27.07
2019-05-23T13:52:43.827Z,27.04
2019-05-23T13:53:43.819Z,27.08
2019-05-23T13:54:43.819Z,27.10
2019-05-23T13:55:43.815Z,27.12
2019-05-23T13:56:47.566Z,27.15
2019-05-23T13:57:43.773Z,27.05
2019-05-23T13:58:43.769Z,27.01
2019-05-23T13:59:43.753Z,27.05
2019-05-23T14:00:43.746Z,27.13
2019-05-23T14:01:43.739Z,27.05
2019-05-23T14:02:43.719Z,27.00
2019-05-23T14:03:43.710Z,27.04
2019-05-23T14:04:43.696Z,27.00
2019-05-23T14:05:43.687Z,27.01
2019-05-23T14:06:43.761Z,26.93
2019-05-23T14:07:43.670Z,26.86
2019-05-23T14:08:43.659Z,26.77
2019-05-23T14:09:43.642Z,26.84
2019-05-23T14:10:43.628Z,26.88
2019-05-23T14:11:43.618Z,26.88
2019-05-23T14:12:43.614Z,26.79
2019-05-23T14:13:43.617Z,26.86
2019-05-23T14:14:43.596Z,26.72
2019-05-23T14:15:43.578Z,26.74
2019-05-23T14:16:43.567Z,26.86
2019-05-23T14:17:43.557Z,26.75
2019-05-23T14:18:43.577Z,26.69
2019-05-23T14:19:43.532Z,26.60
2019-05-23T14:20:43.530Z,25.95
2019-05-23T14:21:43.510Z,25.89
2019-05-23T14:22:43.507Z,25.90
2019-05-23T14:23:43.490Z,25.85
2019-05-23T14:24:43.480Z,25.75
2019-05-23T14:25:43.473Z,25.53
2019-05-23T14:26:43.470Z,25.46
2019-05-23T14:27:43.565Z,25.48
2019-05-23T14:28:43.431Z,25.63
2019-05-23T14:29:43.431Z,25.64
2019-05-23T14:30:43.413Z,25.71
2019-05-23T14:31:43.401Z,25.71
2019-05-23T14:32:43.403Z,25.90
2019-05-23T14:33:43.380Z,25.92
2019-05-23T14:34:43.377Z,25.90
2019-05-23T14:35:43.372Z,25.98
2019-05-23T14:36:43.348Z,25.92
2019-05-23T14:37:43.354Z,25.81
2019-05-23T14:38:43.323Z,25.75
2019-05-23T14:39:43.318Z,25.77
2019-05-23T14:40:43.310Z,25.85
2019-05-23T14:41:45.552Z,25.85
2019-05-23T14:42:43.281Z,25.95
2019-05-23T14:43:43.271Z,25.89
2019-05-23T14:44:43.261Z,25.98
2019-05-23T14:45:43.249Z,25.78
2019-05-23T14:46:43.243Z,25.70
2019-05-23T14:47:43.225Z,25.75
2019-05-23T14:48:43.213Z,25.64
2019-05-23T14:49:43.209Z,25.70
2019-05-23T14:50:43.209Z,25.81
2019-05-23T14:51:43.190Z,25.68
2019-05-23T14:52:43.193Z,25.70
2019-05-23T14:53:43.171Z,25.83
2019-05-23T14:54:43.161Z,25.92
2019-05-23T14:55:43.137Z,25.98
2019-05-23T14:56:43.128Z,25.95
2019-05-23T14:57:43.115Z,25.95
2019-05-23T14:58:43.108Z,25.95
2019-05-23T15:00:43.084Z,25.75
2019-05-23T15:01:43.074Z,25.70
2019-05-23T15:02:43.065Z,25.55
2019-05-23T15:03:43.053Z,25.22
2019-05-23T15:04:43.044Z,25.11
2019-05-23T15:05:43.032Z,25.30
2019-05-23T15:06:43.021Z,25.35
2019-05-23T15:07:43.005Z,25.36
2019-05-23T15:08:51.048Z,25.51
2019-05-23T15:10:07.463Z,25.66
2019-05-23T15:11:07.452Z,25.66
2019-05-23T15:12:07.452Z,25.52
2019-05-23T15:13:07.433Z,25.55
2019-05-23T15:14:07.418Z,25.56
2019-05-23T15:15:07.414Z,25.78
2019-05-23T15:16:07.403Z,25.64
2019-05-23T15:17:07.413Z,25.66
2019-05-23T15:18:07.377Z,25.66
2019-05-23T15:19:07.620Z,25.67
2019-05-23T15:20:07.366Z,25.68